White Rock, Texas
Current Conditions -  °F | °C
As of 1:35 PM on Thursday 23 Oct 2014 (Local Time) from KOCH Reporting Station
Clear Clear  
Wind Chill: 19°   Ceiling: Unl
Heat Index: 19°   Visibility: 10mi
Dew Point: 12°   Wind: 3mph
Humidity: 64%   Direction: 350°N
Pressure: 30.14"   Gusts: NA
Location:  31.516°N, 94.1687°W
Report Text: KOCH 231835Z AUTO 35003KT 10SM CLR 19/12 A3014 RMK AO1
Loading
Personal Weather Stations






























Interactive Weather Map
Tropical Storm Tracking
New forecast layout! Learn more

10-Day Weather Forecast

Advertisements
Track Severe Weather on mobile